Portada
METAR-TAF:

METAR-TAF

Aeroports :

New Bern, Carolina del Nord, Estats Units d'Amèrica

latitud: 35-04-03N, longitud: 077-02-50W, altitud: 5 m

Observació

L'informe es va fer fa 17 minuts, a les 12:54 UTC
Vent 5 kt del Sud-Oest
Temperatura 26°C
Humitat 65%
Pressió 1020 hPa
Visibilitat: 16.1 km
Cel clar

METAR: KEWN 191254Z 23005KT 10SM CLR 26/19 A3011 RMK AO2 SLP197 T02560194

Hora: 09:11 (13:11 UTC)

Pronòstic

L'informe es va fer fa 1 hora i 50 minuts, a les 11:21 UTC
Pronòstic vàlid del 19 a les 12 UTC al 20 a les 12 UTC
Vent 6 kt del Sud/Sud-Oest
Visibilitat: 10 km
Escasses núvols a una alçada de 12000 ft
A partir de les 19 a les 1900 UTC
Vent 10 kt del Sud
Visibilitat: 10 km
Núvols disperses a una alçada de 6000 ft
A partir de les 20 a les 0100 UTC
Vent 4 kt del Sud/Sud-Oest
Visibilitat: 10 km
Cel clar

TAF: KEWN 191121Z 1912/2012 21006KT P6SM FEW120 FM191900 19010KT P6SM SCT060 FM200100 20004KT P6SM SKC

Observacions i pronòstics meteorològics de més de 4000 aeroports (METAR i TAF).

Les estacions disponibles són els punts grocs i vermells al mapa.

Posi el ratolí al punt desitjat per veure el nom de l'estació.

Feu clic per veure les observacions i els pronòstics meteorològics.

Per canviar el mapa: feu clic els botons verds amb una creu de color negre per apropar; al botó verd amb un guió per allunyar la imatge; o en les fletxes verdes per a mapes adjacents.


METAR-TAF: